Time;durP1;ratioP1;P1;durP2;ratioP2;P2;SDS_P1;SDS_P2;PMS_P1;PMS_P2;Temp;Humidity;BMP_temperature;BMP_pressure;BME280_temperature;BME280_humidity;BME280_pressure;Samples;Min_cycle;Max_cycle;Signal;HPM_P1;HPM_P2
2023/03/01 00:01:02;;;;;;;;;;;;;;;30.51;20.80;101730.97;5059044;28;1914;-16
2023/03/01 00:03:28;;;;;;;;;;;;;;;30.66;20.88;101737.25;5059193;28;1143;-16
2023/03/01 00:05:53;;;;;;;;;;;;;;;30.73;20.45;101731.94;5057449;28;1149;-16
2023/03/01 00:08:19;;;;;;;;;;;;;;;30.99;20.42;101733.44;5041782;28;1170;-16
2023/03/01 00:10:45;;;;;;;;;;;;;;;31.32;19.74;101732.22;5049804;28;1060;-16
2023/03/01 00:13:10;;;;;;;;;;;;;;;30.70;20.54;101735.03;5058710;28;1078;-16
2023/03/01 00:15:40;;;;;;;;;;;;;;;30.51;20.92;101733.69;5047870;28;1167;-16
2023/03/01 00:18:06;;;;;;;;;;;;;;;30.47;21.02;101735.06;5052128;28;1088;-16
2023/03/01 00:20:31;;;;;;;;;;;;;;;30.28;21.30;101727.22;5050325;28;1969;-16
2023/03/01 00:22:57;;;;;;;;;;;;;;;30.30;21.33;101733.31;5053923;28;1121;-16
2023/03/01 00:25:22;;;;;;;;;;;;;;;30.48;21.07;101729.44;5049703;28;1043;-16
2023/03/01 00:27:49;;;;;;;;;;;;;;;32.08;19.42;101734.88;5045560;28;1088;-16
2023/03/01 00:30:14;;;;;;;;;;;;;;;31.78;19.08;101727.59;5046344;28;1442;-16
2023/03/01 00:32:40;;;;;;;;;;;;;;;31.46;19.55;101725.13;5052154;28;1044;-16
2023/03/01 00:35:06;;;;;;;;;;;;;;;30.16;21.48;101717.81;5037652;28;1091;-16
2023/03/01 00:37:31;;;;;;;;;;;;;;;30.28;21.17;101713.66;5041592;28;1198;-16
2023/03/01 00:39:57;;;;;;;;;;;;;;;30.15;21.40;101705.25;5047346;28;1910;-16
2023/03/01 00:42:23;;;;;;;;;;;;;;;31.56;19.69;101691.34;5071156;28;1091;-16
2023/03/01 00:44:48;;;;;;;;;;;;;;;32.10;19.19;101691.94;5046530;28;1199;-16
2023/03/01 00:47:14;;;;;;;;;;;;;;;32.61;18.80;101698.28;5055984;28;1111;-16
2023/03/01 00:49:39;;;;;;;;;;;;;;;32.50;18.55;101696.91;5047936;28;1186;-16
2023/03/01 00:52:05;;;;;;;;;;;;;;;31.92;18.84;101689.63;5055756;28;1035;-16
2023/03/01 00:54:31;;;;;;;;;;;;;;;31.42;19.65;101687.59;5046151;28;857;-16
2023/03/01 00:56:56;;;;;;;;;;;;;;;30.19;21.44;101693.88;5057196;28;1135;-16
2023/03/01 00:59:22;;;;;;;;;;;;;;;30.20;21.44;101681.16;5057080;28;1901;-16
2023/03/01 01:01:47;;;;;;;;;;;;;;;30.51;21.18;101692.97;5057986;28;1059;-16
2023/03/01 01:04:13;;;;;;;;;;;;;;;31.85;19.76;101693.13;5058215;28;1095;-15
2023/03/01 01:06:42;;;;;;;;;;;;;;;32.55;18.84;101688.19;5044689;28;1194;-16
2023/03/01 01:09:07;;;;;;;;;;;;;;;32.66;18.71;101674.03;5047039;28;1199;-16
2023/03/01 01:11:35;;;;;;;;;;;;;;;31.79;19.30;101674.03;5051090;28;1008;-16
2023/03/01 01:14:00;;;;;;;;;;;;;;;31.00;20.40;101674.47;5049274;28;1045;-16
2023/03/01 01:16:27;;;;;;;;;;;;;;;30.06;21.56;101667.31;5057154;28;1156;-16
2023/03/01 01:18:53;;;;;;;;;;;;;;;30.17;21.58;101671.50;5056053;28;1423;-16
2023/03/01 01:21:20;;;;;;;;;;;;;;;30.10;21.54;101673.22;5056052;28;1979;-16
2023/03/01 01:23:45;;;;;;;;;;;;;;;30.02;21.64;101674.16;5057745;28;1090;-16
2023/03/01 01:26:15;;;;;;;;;;;;;;;30.14;21.60;101673.72;5044538;28;1127;-16
2023/03/01 01:28:40;;;;;;;;;;;;;;;30.24;21.64;101665.34;5056260;28;1155;-16
2023/03/01 01:31:06;;;;;;;;;;;;;;;30.42;21.38;101665.88;5055388;28;1154;-16
2023/03/01 01:33:32;;;;;;;;;;;;;;;31.21;20.39;101662.88;5056203;28;1223;-16
2023/03/01 01:35:57;;;;;;;;;;;;;;;32.46;19.17;101673.84;5044674;28;1236;-16
2023/03/01 01:38:23;;;;;;;;;;;;;;;31.95;19.07;101668.31;5053794;28;976;-16
2023/03/01 01:40:49;;;;;;;;;;;;;;;31.12;20.27;101670.28;5042902;28;1905;-16
2023/03/01 01:43:20;;;;;;;;;;;;;;;30.63;20.88;101663.50;5063042;28;1435;-16
2023/03/01 01:45:45;;;;;;;;;;;;;;;30.46;21.27;101671.78;5069368;28;1151;-16
2023/03/01 01:48:12;;;;;;;;;;;;;;;30.30;21.41;101670.91;5055433;28;1122;-16
2023/03/01 01:50:38;;;;;;;;;;;;;;;30.24;21.38;101668.06;5043752;28;1265;-15
2023/03/01 01:53:05;;;;;;;;;;;;;;;30.47;21.32;101676.19;5072501;28;1331;-16
2023/03/01 01:55:31;;;;;;;;;;;;;;;31.42;19.98;101655.84;5054408;28;996;-16
2023/03/01 01:57:58;;;;;;;;;;;;;;;31.97;19.72;101668.16;5056187;28;1055;-16
2023/03/01 02:00:25;;;;;;;;;;;;;;;32.57;19.04;101664.28;5055445;28;1906;-15
2023/03/01 02:02:54;;;;;;;;;;;;;;;31.98;19.37;101664.44;5055763;28;1295;-15
2023/03/01 02:05:40;;;;;;;;;;;;;;;31.29;20.26;101661.91;5036985;28;1573;-16
2023/03/01 02:08:06;;;;;;;;;;;;;;;30.78;20.72;101658.91;5046463;28;1294;-16
2023/03/01 02:10:33;;;;;;;;;;;;;;;30.93;20.43;101660.81;5045868;28;992;-16
2023/03/01 02:12:58;;;;;;;;;;;;;;;30.94;20.81;101670.66;5055516;28;1198;-16
2023/03/01 02:15:24;;;;;;;;;;;;;;;30.69;21.10;101676.31;5055610;28;1079;-16
2023/03/01 02:17:49;;;;;;;;;;;;;;;30.65;21.20;101667.69;5052728;28;1138;-16
2023/03/01 02:20:18;;;;;;;;;;;;;;;30.72;21.21;101675.09;5054795;28;1965;-15
2023/03/01 02:22:44;;;;;;;;;;;;;;;30.78;20.98;101671.66;5056300;28;1245;-15
2023/03/01 02:25:18;;;;;;;;;;;;;;;31.26;20.47;101671.28;5038889;28;1119;-16
2023/03/01 02:27:49;;;;;;;;;;;;;;;31.16;20.22;101671.56;5055388;28;1250;-16
2023/03/01 02:30:15;;;;;;;;;;;;;;;30.70;21.28;101669.84;5045039;28;1095;-16
2023/03/01 02:32:41;;;;;;;;;;;;;;;30.53;21.43;101670.00;5042362;28;1005;-16
2023/03/01 02:35:08;;;;;;;;;;;;;;;31.07;20.75;101671.88;5055524;28;1111;-15
2023/03/01 02:37:34;;;;;;;;;;;;;;;32.09;19.47;101684.81;5050539;28;1063;-16
2023/03/01 02:40:02;;;;;;;;;;;;;;;31.10;20.34;101669.63;5046527;28;1989;-15
2023/03/01 02:42:30;;;;;;;;;;;;;;;30.60;21.08;101678.25;5053460;28;1119;-16
2023/03/01 02:44:56;;;;;;;;;;;;;;;30.84;21.12;101691.81;5071588;28;1229;-15
2023/03/01 02:47:21;;;;;;;;;;;;;;;30.90;20.86;101694.63;5054190;28;1287;-16
2023/03/01 02:49:47;;;;;;;;;;;;;;;31.46;20.15;101689.78;5050418;28;1999;-15
2023/03/01 02:52:19;;;;;;;;;;;;;;;31.37;20.37;101699.88;5058121;28;1120;-17
2023/03/01 02:54:54;;;;;;;;;;;;;;;30.95;20.70;101693.25;5054056;28;1785;-17
2023/03/01 02:57:21;;;;;;;;;;;;;;;31.08;20.89;101698.03;5050031;28;1535;-16
2023/03/01 02:59:47;;;;;;;;;;;;;;;30.91;20.99;101690.88;5055976;28;1977;-17
2023/03/01 03:02:38;;;;;;;;;;;;;;;30.74;21.27;101695.63;5059085;28;1221;-16
2023/03/01 03:05:24;;;;;;;;;;;;;;;30.80;21.37;101696.78;5058352;28;1235;-15
2023/03/01 03:07:52;;;;;;;;;;;;;;;30.90;21.05;101704.66;5052532;28;1254;-16
2023/03/01 03:10:19;;;;;;;;;;;;;;;31.16;20.65;101709.63;5055752;28;1294;-15
2023/03/01 03:12:55;;;;;;;;;;;;;;;31.60;20.02;101701.66;5040264;28;1168;-16
2023/03/01 03:15:21;;;;;;;;;;;;;;;30.98;19.45;101699.13;5049459;28;1193;-15
2023/03/01 03:17:47;;;;;;;;;;;;;;;29.95;20.35;101697.56;5053685;28;1239;-15
2023/03/01 03:20:18;;;;;;;;;;;;;;;29.61;20.55;101696.09;5053610;28;1977;-15
2023/03/01 03:22:45;;;;;;;;;;;;;;;29.39;20.57;101699.38;5052175;28;1222;-14
2023/03/01 03:25:10;;;;;;;;;;;;;;;29.47;20.62;101690.34;5052808;28;1298;-15
2023/03/01 03:27:37;;;;;;;;;;;;;;;29.79;20.11;101688.53;5047392;28;1305;-15
2023/03/01 03:30:03;;;;;;;;;;;;;;;29.50;20.33;101686.44;5055768;28;1320;-15
2023/03/01 03:32:30;;;;;;;;;;;;;;;29.51;20.66;101694.38;5055826;28;901;-14
2023/03/01 03:34:56;;;;;;;;;;;;;;;29.57;20.42;101698.28;5060004;28;1122;-15
2023/03/01 03:40:15;;;;;;;;;;;;;;;29.64;20.19;101693.88;5049131;28;1910;-14
2023/03/01 03:42:40;;;;;;;;;;;;;;;29.44;20.59;101677.16;5058891;28;1051;-14
2023/03/01 03:45:06;;;;;;;;;;;;;;;29.49;20.20;101673.91;5051695;28;1119;-14
2023/03/01 03:47:32;;;;;;;;;;;;;;;29.65;20.01;101670.28;5057385;28;897;-14
2023/03/01 03:49:57;;;;;;;;;;;;;;;29.41;20.23;101661.25;5059209;28;1062;-14
2023/03/01 03:52:23;;;;;;;;;;;;;;;29.16;20.68;101658.66;5059041;28;1106;-14
2023/03/01 03:54:49;;;;;;;;;;;;;;;29.33;20.19;101659.41;5057606;28;1042;-14
2023/03/01 03:57:14;;;;;;;;;;;;;;;29.33;20.46;101654.84;5052939;28;1135;-17
2023/03/01 03:59:40;;;;;;;;;;;;;;;29.50;20.49;101645.78;5052087;28;1914;-17
2023/03/01 04:02:08;;;;;;;;;;;;;;;29.06;20.73;101640.72;5047714;28;1392;-16
2023/03/01 04:04:34;;;;;;;;;;;;;;;29.54;20.09;101641.69;5049296;28;1104;-17
2023/03/01 04:06:59;;;;;;;;;;;;;;;29.31;20.05;101645.22;5054429;28;1668;-17
2023/03/01 04:09:25;;;;;;;;;;;;;;;29.27;20.21;101636.59;5059145;28;1008;-15
2023/03/01 04:11:50;;;;;;;;;;;;;;;29.21;20.46;101638.13;5057741;28;1308;-16
2023/03/01 04:14:16;;;;;;;;;;;;;;;28.01;20.25;101645.03;5058411;28;1038;-15
2023/03/01 04:16:42;;;;;;;;;;;;;;;27.64;20.52;101620.94;5058610;28;1059;-16
2023/03/01 04:19:09;;;;;;;;;;;;;;;27.43;20.48;101624.06;5058478;28;933;-15
2023/03/01 04:21:35;;;;;;;;;;;;;;;27.42;20.85;101631.34;5058620;28;2012;-17
2023/03/01 04:24:03;;;;;;;;;;;;;;;26.92;21.12;101639.19;5058571;28;1054;-16
2023/03/01 04:26:29;;;;;;;;;;;;;;;27.57;20.38;101636.97;5045770;28;1099;-16
2023/03/01 04:28:54;;;;;;;;;;;;;;;26.45;21.48;101643.94;5054005;28;1313;-15
2023/03/01 04:31:21;;;;;;;;;;;;;;;25.84;21.41;101647.22;5055174;28;1135;-15
2023/03/01 04:33:46;;;;;;;;;;;;;;;25.36;21.56;101652.72;5055719;28;1190;-15
2023/03/01 04:36:12;;;;;;;;;;;;;;;25.21;21.97;101659.63;5058589;28;1122;-15
2023/03/01 04:38:38;;;;;;;;;;;;;;;26.20;20.99;101659.03;5045471;28;1180;-15
2023/03/01 04:41:07;;;;;;;;;;;;;;;25.94;21.54;101665.19;5058372;28;1985;-15
2023/03/01 04:43:33;;;;;;;;;;;;;;;25.85;21.38;101669.66;5053968;28;1031;-15
2023/03/01 04:46:07;;;;;;;;;;;;;;;26.24;21.41;101661.25;5048713;28;1043;-15
2023/03/01 04:48:33;;;;;;;;;;;;;;;26.23;21.62;101656.88;5058105;28;1063;-15
2023/03/01 04:50:59;;;;;;;;;;;;;;;25.93;21.60;101656.25;5047082;28;1135;-16
2023/03/01 04:53:25;;;;;;;;;;;;;;;26.02;22.06;101655.34;5056562;28;1163;-16
2023/03/01 04:55:50;;;;;;;;;;;;;;;26.04;21.80;101658.72;5056669;28;1144;-15
2023/03/01 04:58:16;;;;;;;;;;;;;;;25.57;22.11;101648.94;5058193;28;1103;-15
2023/03/01 05:00:41;;;;;;;;;;;;;;;25.67;21.60;101648.91;5053007;28;1993;-15
2023/03/01 05:03:07;;;;;;;;;;;;;;;26.80;21.51;101645.84;5049271;28;1214;-15
2023/03/01 05:05:34;;;;;;;;;;;;;;;25.96;21.23;101647.84;5053190;28;1048;-15
2023/03/01 05:08:00;;;;;;;;;;;;;;;25.97;20.51;101644.19;5056100;28;1063;-15
2023/03/01 05:10:26;;;;;;;;;;;;;;;25.40;21.35;101648.75;5046485;28;1080;-16
2023/03/01 05:12:54;;;;;;;;;;;;;;;25.05;22.10;101648.47;5056127;28;1169;-15
2023/03/01 05:15:21;;;;;;;;;;;;;;;25.51;22.19;101652.22;5046581;28;1076;-15
2023/03/01 05:17:47;;;;;;;;;;;;;;;25.49;22.63;101649.69;5057410;28;1256;-15
2023/03/01 05:20:13;;;;;;;;;;;;;;;25.58;22.29;101647.94;5056706;28;1983;-15
2023/03/01 05:22:38;;;;;;;;;;;;;;;25.80;22.51;101652.09;5048230;28;1206;-15
2023/03/01 05:25:04;;;;;;;;;;;;;;;25.58;22.28;101647.94;5053542;28;1096;-15
2023/03/01 05:27:30;;;;;;;;;;;;;;;26.90;21.70;101639.34;5057478;28;1138;-15
2023/03/01 05:29:56;;;;;;;;;;;;;;;28.44;20.10;101644.88;5057571;28;1138;-15
2023/03/01 05:32:21;;;;;;;;;;;;;;;28.18;20.63;101652.13;5049161;28;1221;-15
2023/03/01 05:34:47;;;;;;;;;;;;;;;29.20;19.67;101650.00;5048153;28;1182;-15
2023/03/01 05:37:13;;;;;;;;;;;;;;;28.10;20.94;101652.13;5055380;28;917;-15
2023/03/01 05:39:39;;;;;;;;;;;;;;;27.54;21.82;101658.06;5045518;28;1971;-15
2023/03/01 05:42:04;;;;;;;;;;;;;;;28.46;20.85;101649.09;5043295;28;907;-15
2023/03/01 05:44:30;;;;;;;;;;;;;;;29.28;19.80;101653.69;5052078;28;1140;-15
2023/03/01 05:46:56;;;;;;;;;;;;;;;28.14;20.87;101647.22;5048260;28;1075;-15
2023/03/01 05:49:25;;;;;;;;;;;;;;;27.48;21.88;101648.75;5045028;28;1027;-15
2023/03/01 05:51:52;;;;;;;;;;;;;;;28.65;20.53;101652.47;5049612;28;876;-15
2023/03/01 05:54:18;;;;;;;;;;;;;;;28.35;20.90;101654.88;5048979;28;965;-15
2023/03/01 05:56:43;;;;;;;;;;;;;;;28.03;21.25;101660.06;5049785;28;1107;-15
2023/03/01 05:59:09;;;;;;;;;;;;;;;27.29;22.46;101652.56;5044603;28;1067;-16
2023/03/01 06:01:35;;;;;;;;;;;;;;;27.10;22.44;101651.81;5036972;28;1919;-16
2023/03/01 06:04:01;;;;;;;;;;;;;;;26.94;22.86;101653.41;5044750;28;1168;-15
2023/03/01 06:06:26;;;;;;;;;;;;;;;26.89;23.09;101650.31;5051149;28;1195;-15
2023/03/01 06:08:52;;;;;;;;;;;;;;;26.67;23.79;101648.97;5047258;28;1245;-15
2023/03/01 06:11:18;;;;;;;;;;;;;;;26.89;23.32;101653.84;5049949;28;1025;-15
2023/03/01 06:13:43;;;;;;;;;;;;;;;27.34;22.79;101667.25;5046393;28;1155;-15
2023/03/01 06:16:09;;;;;;;;;;;;;;;27.32;22.88;101669.31;5043047;28;1111;-15
2023/03/01 06:18:35;;;;;;;;;;;;;;;27.01;23.06;101669.78;5044441;28;1178;-15
2023/03/01 06:21:00;;;;;;;;;;;;;;;26.39;23.92;101674.25;5042194;28;1910;-15
2023/03/01 06:23:26;;;;;;;;;;;;;;;26.32;24.38;101673.13;5050830;28;851;-15
2023/03/01 06:25:51;;;;;;;;;;;;;;;26.86;23.55;101659.56;5041565;28;1195;-15
2023/03/01 06:28:17;;;;;;;;;;;;;;;27.13;23.35;101654.19;5040193;28;1309;-15
2023/03/01 06:30:43;;;;;;;;;;;;;;;27.17;23.47;101652.00;5047039;28;915;-16
2023/03/01 06:33:08;;;;;;;;;;;;;;;26.94;22.78;101652.53;5049125;28;1167;-15
2023/03/01 06:35:34;;;;;;;;;;;;;;;26.61;23.79;101655.88;5037446;28;1007;-15
2023/03/01 06:38:00;;;;;;;;;;;;;;;27.51;23.02;101643.00;5048712;28;1135;-16
2023/03/01 06:40:25;;;;;;;;;;;;;;;27.99;22.12;101647.91;5048390;28;1980;-15
2023/03/01 06:42:51;;;;;;;;;;;;;;;28.40;21.95;101655.22;5050164;28;1091;-15
2023/03/01 06:45:19;;;;;;;;;;;;;;;28.34;22.00;101653.19;5052165;28;933;-15
2023/03/01 06:47:45;;;;;;;;;;;;;;;27.84;22.29;101647.69;5051095;28;893;-15
2023/03/01 06:50:11;;;;;;;;;;;;;;;27.28;23.48;101645.50;5041647;28;1052;-15
2023/03/01 06:52:36;;;;;;;;;;;;;;;27.35;23.78;101643.81;5028249;28;1164;-16
2023/03/01 06:55:02;;;;;;;;;;;;;;;27.37;23.58;101645.34;5053322;28;1231;-16
2023/03/01 06:57:28;;;;;;;;;;;;;;;26.97;23.92;101653.06;5051932;28;1223;-16
2023/03/01 06:59:53;;;;;;;;;;;;;;;27.00;23.94;101651.88;5041509;28;1977;-15
2023/03/01 07:02:19;;;;;;;;;;;;;;;27.23;23.80;101665.72;5052968;28;1317;-16
2023/03/01 07:04:44;;;;;;;;;;;;;;;27.24;23.85;101661.16;5044066;28;1258;-16
2023/03/01 07:07:10;;;;;;;;;;;;;;;27.10;23.85;101655.34;5054321;28;1321;-16
2023/03/01 07:09:36;;;;;;;;;;;;;;;27.19;23.63;101656.25;5039960;28;1357;-16
2023/03/01 07:12:01;;;;;;;;;;;;;;;27.31;23.65;101650.56;5054933;28;1281;-16
2023/03/01 07:14:27;;;;;;;;;;;;;;;27.49;23.70;101656.69;5055931;28;1312;-16
2023/03/01 07:16:53;;;;;;;;;;;;;;;27.52;23.33;101658.22;5037316;28;1104;-16
2023/03/01 07:19:19;;;;;;;;;;;;;;;27.36;23.50;101657.16;5035197;28;1364;-16
2023/03/01 07:21:44;;;;;;;;;;;;;;;26.50;24.89;101662.34;5036628;28;1906;-14
2023/03/01 07:24:10;;;;;;;;;;;;;;;26.45;25.02;101665.53;5040860;28;1368;-16
2023/03/01 07:26:36;;;;;;;;;;;;;;;26.69;24.75;101671.28;5052082;28;1262;-15
2023/03/01 07:29:02;;;;;;;;;;;;;;;27.59;23.59;101666.53;5059330;28;1061;-15
2023/03/01 07:31:27;;;;;;;;;;;;;;;27.75;23.20;101671.16;5045932;28;1298;-15
2023/03/01 07:33:54;;;;;;;;;;;;;;;27.37;23.73;101674.22;5044683;28;1142;-15
2023/03/01 07:36:19;;;;;;;;;;;;;;;27.20;23.91;101682.25;5054717;28;1144;-15
2023/03/01 07:38:45;;;;;;;;;;;;;;;27.41;23.80;101672.03;5053182;28;1215;-15
2023/03/01 07:41:10;;;;;;;;;;;;;;;27.13;24.16;101664.97;5048454;28;1906;-15
2023/03/01 07:43:36;;;;;;;;;;;;;;;27.70;23.27;101662.69;5046931;28;1107;-15
2023/03/01 07:46:02;;;;;;;;;;;;;;;27.59;23.25;101661.13;5054233;28;913;-15
2023/03/01 07:48:28;;;;;;;;;;;;;;;27.20;24.00;101651.69;5057889;28;1091;-15
2023/03/01 07:50:53;;;;;;;;;;;;;;;27.15;23.88;101646.75;5056886;28;977;-15
2023/03/01 07:53:19;;;;;;;;;;;;;;;27.17;24.12;101657.41;5045364;28;1227;-16
2023/03/01 07:55:44;;;;;;;;;;;;;;;27.45;23.92;101652.63;5056181;28;1052;-15
2023/03/01 07:58:10;;;;;;;;;;;;;;;27.57;23.82;101647.78;5045171;28;1053;-15
2023/03/01 08:00:35;;;;;;;;;;;;;;;28.01;23.00;101653.97;5050469;28;1914;-15
2023/03/01 08:03:01;;;;;;;;;;;;;;;27.59;23.76;101659.25;5048873;28;1060;-15
2023/03/01 08:05:27;;;;;;;;;;;;;;;27.36;24.11;101659.03;5057540;28;1246;-16
2023/03/01 08:07:53;;;;;;;;;;;;;;;27.35;24.35;101655.47;5050484;28;1312;-15
2023/03/01 08:10:19;;;;;;;;;;;;;;;28.26;23.08;101658.56;5051429;28;1059;-15
2023/03/01 08:12:45;;;;;;;;;;;;;;;28.15;23.03;101649.75;5054818;28;1368;-16
2023/03/01 08:15:10;;;;;;;;;;;;;;;28.13;22.88;101659.06;5041865;28;1103;-15
2023/03/01 08:17:36;;;;;;;;;;;;;;;27.50;23.84;101660.25;5055211;28;1278;-15
2023/03/01 08:20:03;;;;;;;;;;;;;;;27.45;24.14;101660.75;5049810;28;1967;-15
2023/03/01 08:22:28;;;;;;;;;;;;;;;27.66;24.09;101651.34;5044198;28;989;-16
2023/03/01 08:24:55;;;;;;;;;;;;;;;28.14;23.46;101652.63;5056873;28;1247;-15
2023/03/01 08:27:21;;;;;;;;;;;;;;;28.93;22.18;101652.06;5057793;28;977;-16
2023/03/01 08:29:46;;;;;;;;;;;;;;;28.33;22.58;101651.47;5049569;28;1243;-16
2023/03/01 08:32:12;;;;;;;;;;;;;;;27.69;23.29;101653.75;5047667;28;1080;-16
2023/03/01 08:34:38;;;;;;;;;;;;;;;27.62;24.13;101649.97;5043598;28;1084;-16
2023/03/01 08:37:03;;;;;;;;;;;;;;;27.69;23.83;101648.34;5057592;28;828;-15
2023/03/01 08:39:29;;;;;;;;;;;;;;;27.87;23.81;101659.03;5051430;28;1068;-15
2023/03/01 08:41:54;;;;;;;;;;;;;;;28.88;22.62;101657.16;5042214;28;1910;-16
2023/03/01 08:44:23;;;;;;;;;;;;;;;28.13;23.24;101662.59;5050041;28;1131;-15
2023/03/01 08:46:49;;;;;;;;;;;;;;;27.80;23.25;101658.00;5046041;28;945;-15
2023/03/01 08:49:16;;;;;;;;;;;;;;;27.06;24.57;101656.66;5047435;28;1112;-15
2023/03/01 08:51:42;;;;;;;;;;;;;;;26.88;24.78;101651.31;5047436;28;1059;-15
2023/03/01 08:54:10;;;;;;;;;;;;;;;26.95;24.72;101654.22;5049935;28;1048;-15
2023/03/01 08:56:36;;;;;;;;;;;;;;;27.86;23.82;101660.03;5048631;28;1199;-15
2023/03/01 08:59:02;;;;;;;;;;;;;;;27.70;23.97;101649.19;5054341;28;1029;-15
2023/03/01 09:01:27;;;;;;;;;;;;;;;27.42;24.16;101644.00;5043464;28;1911;-15
2023/03/01 09:03:53;;;;;;;;;;;;;;;26.97;24.87;101646.81;5044980;28;1147;-15
2023/03/01 09:06:18;;;;;;;;;;;;;;;27.38;24.16;101656.97;5046392;28;1036;-15
2023/03/01 09:08:45;;;;;;;;;;;;;;;27.29;24.78;101647.16;5053104;28;1126;-15
2023/03/01 09:11:11;;;;;;;;;;;;;;;27.79;23.88;101645.50;5052212;28;1004;-15
2023/03/01 09:13:37;;;;;;;;;;;;;;;27.71;24.05;101648.19;5056302;28;993;-15
2023/03/01 09:16:03;;;;;;;;;;;;;;;27.46;24.16;101640.81;5053282;28;1145;-15
2023/03/01 09:18:29;;;;;;;;;;;;;;;26.84;25.18;101636.44;5048323;28;1223;-15
2023/03/01 09:21:07;;;;;;;;;;;;;;;27.12;24.87;101642.53;5049194;28;1979;-15
2023/03/01 09:23:34;;;;;;;;;;;;;;;27.35;24.76;101655.47;5053186;28;860;-16
2023/03/01 09:25:59;;;;;;;;;;;;;;;27.69;23.87;101651.06;5042106;28;1095;-15
2023/03/01 09:28:25;;;;;;;;;;;;;;;27.56;24.32;101656.06;5048089;28;1146;-15
2023/03/01 09:30:50;;;;;;;;;;;;;;;27.39;24.71;101642.50;5056199;28;1305;-16
2023/03/01 09:33:16;;;;;;;;;;;;;;;27.58;24.50;101652.16;5053181;28;1238;-16
2023/03/01 09:35:45;;;;;;;;;;;;;;;27.67;24.30;101652.19;5053057;28;1013;-16
2023/03/01 09:38:12;;;;;;;;;;;;;;;27.72;23.81;101645.31;5047320;28;1179;-17
2023/03/01 09:40:42;;;;;;;;;;;;;;;27.76;23.90;101651.22;5054047;28;1890;-16
2023/03/01 09:43:13;;;;;;;;;;;;;;;27.66;24.34;101643.22;5047292;28;864;-16
2023/03/01 09:45:40;;;;;;;;;;;;;;;27.80;23.90;101644.47;5041241;28;1140;-16
2023/03/01 09:48:06;;;;;;;;;;;;;;;27.12;25.14;101645.25;5051886;28;1167;-17
2023/03/01 09:50:33;;;;;;;;;;;;;;;27.38;24.65;101636.22;5055273;28;1294;-16
2023/03/01 09:53:02;;;;;;;;;;;;;;;27.59;24.19;101631.41;5036563;28;1029;-16
2023/03/01 09:55:36;;;;;;;;;;;;;;;27.68;23.94;101640.34;5045661;28;916;-16
2023/03/01 09:58:20;;;;;;;;;;;;;;;27.48;24.46;101646.03;5047556;28;1438;-16
2023/03/01 10:00:47;;;;;;;;;;;;;;;28.18;23.62;101635.03;5039074;28;1985;-16
2023/03/01 10:03:26;;;;;;;;;;;;;;;27.72;23.93;101631.81;5044011;28;1433;-16
2023/03/01 10:06:07;;;;;;;;;;;;;;;27.67;23.59;101635.97;5051856;28;1051;-16
2023/03/01 10:08:41;;;;;;;;;;;;;;;27.61;24.16;101632.91;5047378;28;1130;-16
2023/03/01 10:11:27;;;;;;;;;;;;;;;26.95;24.81;101619.13;5045860;28;1093;-16
2023/03/01 10:14:09;;;;;;;;;;;;;;;27.16;24.70;101626.84;5051710;28;1105;-16
2023/03/01 10:16:53;;;;;;;;;;;;;;;27.09;23.66;101621.25;5051779;28;1261;-15
2023/03/01 10:19:42;;;;;;;;;;;;;;;27.94;23.37;101623.22;5054849;28;1062;-15
2023/03/01 10:22:13;;;;;;;;;;;;;;;27.59;24.16;101621.41;5034866;28;1416;-16
2023/03/01 10:24:38;;;;;;;;;;;;;;;27.16;24.29;101615.22;5047428;28;1177;-16
2023/03/01 10:27:09;;;;;;;;;;;;;;;26.69;25.17;101610.06;5051746;28;1161;-16
2023/03/01 10:29:37;;;;;;;;;;;;;;;26.70;25.06;101606.34;5037775;28;1246;-16
2023/03/01 10:32:03;;;;;;;;;;;;;;;27.66;24.11;101608.09;5045140;28;1340;-15
2023/03/01 10:34:33;;;;;;;;;;;;;;;28.42;22.96;101607.19;5053233;28;1117;-16
2023/03/01 10:37:08;;;;;;;;;;;;;;;27.46;23.84;101608.38;5045632;28;1110;-15
2023/03/01 10:39:34;;;;;;;;;;;;;;;26.93;24.23;101599.53;5041892;28;1516;-16
2023/03/01 10:42:03;;;;;;;;;;;;;;;26.96;24.47;101596.53;5048211;28;1914;-15
2023/03/01 10:44:35;;;;;;;;;;;;;;;27.16;24.21;101594.44;5048363;28;1114;-15
2023/03/01 10:47:01;;;;;;;;;;;;;;;28.72;22.18;101591.22;5037863;28;1084;-15
2023/03/01 10:49:27;;;;;;;;;;;;;;;27.57;23.72;101580.22;5054010;28;1166;-16
2023/03/01 10:51:52;;;;;;;;;;;;;;;27.59;23.27;101588.16;5055938;28;1286;-16
2023/03/01 10:54:31;;;;;;;;;;;;;;;27.47;23.55;101582.22;5053608;28;1227;-16
2023/03/01 10:57:01;;;;;;;;;;;;;;;27.84;23.41;101586.34;5043880;28;1262;-16
2023/03/01 10:59:30;;;;;;;;;;;;;;;28.87;22.31;101586.94;5051736;28;1388;-15
2023/03/01 11:02:14;;;;;;;;;;;;;;;29.24;21.54;101579.19;5051300;28;1964;-16
2023/03/01 11:04:47;;;;;;;;;;;;;;;27.75;23.62;101579.25;5039145;28;1329;-16
2023/03/01 11:07:13;;;;;;;;;;;;;;;27.60;23.24;101577.19;5048332;28;1099;-15
2023/03/01 11:09:38;;;;;;;;;;;;;;;27.16;24.12;101550.38;5046070;28;1305;-15
2023/03/01 11:12:05;;;;;;;;;;;;;;;26.95;24.58;101565.97;5050600;28;1115;-16
2023/03/01 11:14:33;;;;;;;;;;;;;;;27.38;24.25;101552.47;5041872;28;1084;-15
2023/03/01 11:16:59;;;;;;;;;;;;;;;28.27;23.03;101569.13;5054028;28;1104;-15
2023/03/01 11:19:25;;;;;;;;;;;;;;;27.47;23.81;101558.75;5047372;28;1136;-15
2023/03/01 11:21:51;;;;;;;;;;;;;;;27.39;24.00;101556.84;5052968;28;1986;-15
2023/03/01 11:24:16;;;;;;;;;;;;;;;27.58;23.95;101548.59;5062391;28;896;-15
2023/03/01 11:26:43;;;;;;;;;;;;;;;27.15;24.39;101544.13;5059211;28;1090;-16
2023/03/01 11:29:17;;;;;;;;;;;;;;;27.59;23.55;101542.22;5058895;28;1208;-15
2023/03/01 11:31:43;;;;;;;;;;;;;;;27.53;23.78;101537.47;5056225;28;1299;-15
2023/03/01 11:34:13;;;;;;;;;;;;;;;27.44;23.82;101526.66;5057895;28;1215;-15
2023/03/01 11:36:42;;;;;;;;;;;;;;;27.23;24.43;101522.56;5059153;28;1019;-15
2023/03/01 11:39:17;;;;;;;;;;;;;;;27.29;24.51;101520.19;5058124;28;1034;-15
2023/03/01 11:41:43;;;;;;;;;;;;;;;27.01;24.74;101514.03;5057969;28;1914;-15
2023/03/01 11:44:14;;;;;;;;;;;;;;;27.93;23.66;101514.19;5051182;28;1218;-15
2023/03/01 11:46:49;;;;;;;;;;;;;;;27.64;24.06;101510.13;5050000;28;1060;-15
2023/03/01 11:49:33;;;;;;;;;;;;;;;27.49;23.91;101512.66;5059388;28;1105;-15
2023/03/01 11:52:10;;;;;;;;;;;;;;;27.04;25.13;101515.59;5058912;28;1020;-15
2023/03/01 11:54:48;;;;;;;;;;;;;;;27.15;25.07;101525.22;5059049;28;1062;-15
2023/03/01 11:57:32;;;;;;;;;;;;;;;27.42;24.45;101520.56;5047605;28;1143;-15
2023/03/01 12:00:24;;;;;;;;;;;;;;;27.45;24.09;101514.84;5057863;28;1938;-16
2023/03/01 12:03:04;;;;;;;;;;;;;;;27.20;24.51;101503.13;5037516;28;1315;-15
2023/03/01 12:05:35;;;;;;;;;;;;;;;26.57;25.89;101498.84;5059234;28;1036;-15
2023/03/01 12:08:08;;;;;;;;;;;;;;;26.46;26.25;101489.16;5043780;28;1233;-15
2023/03/01 12:10:37;;;;;;;;;;;;;;;26.75;25.60;101479.84;5048069;28;1032;-15
2023/03/01 12:13:28;;;;;;;;;;;;;;;26.99;25.47;101485.50;5045463;28;1143;-15
2023/03/01 12:16:06;;;;;;;;;;;;;;;27.22;24.83;101485.75;5032715;28;1032;-15
2023/03/01 12:18:39;;;;;;;;;;;;;;;27.33;24.29;101487.28;5043662;28;1202;-15
2023/03/01 12:21:18;;;;;;;;;;;;;;;27.31;24.54;101480.38;5057458;28;1910;-16
2023/03/01 12:23:56;;;;;;;;;;;;;;;27.56;24.54;101485.81;5047123;28;1418;-15
2023/03/01 12:26:31;;;;;;;;;;;;;;;27.11;25.25;101483.38;5055956;28;1103;-14
2023/03/01 12:28:57;;;;;;;;;;;;;;;27.40;24.48;101484.75;5047565;28;1131;-16
2023/03/01 12:31:31;;;;;;;;;;;;;;;27.47;24.21;101483.09;5058244;28;1125;-16
2023/03/01 12:34:05;;;;;;;;;;;;;;;27.41;24.34;101485.63;5056465;28;1134;-16
2023/03/01 12:36:50;;;;;;;;;;;;;;;27.01;25.31;101492.44;5053937;28;1263;-15
2023/03/01 12:39:18;;;;;;;;;;;;;;;26.93;25.53;101486.13;5043060;28;1090;-16
2023/03/01 12:41:47;;;;;;;;;;;;;;;27.21;25.08;101494.84;5058196;28;1980;-16
2023/03/01 12:44:12;;;;;;;;;;;;;;;27.51;24.54;101487.13;5058123;28;1281;-15
2023/03/01 12:46:39;;;;;;;;;;;;;;;27.26;24.81;101479.00;5058179;28;1203;-15
2023/03/01 12:49:08;;;;;;;;;;;;;;;26.93;25.30;101483.44;5055772;28;1297;-15
2023/03/01 12:51:34;;;;;;;;;;;;;;;27.84;24.24;101474.66;5057044;28;1210;-15
2023/03/01 12:54:01;;;;;;;;;;;;;;;27.78;24.06;101470.78;5058403;28;1093;-15